Time;durP1;ratioP1;P1;durP2;ratioP2;P2;SDS_P1;SDS_P2;PMS_P1;PMS_P2;Temp;Humidity;BMP_temperature;BMP_pressure;BME280_temperature;BME280_humidity;BME280_pressure;Samples;Min_cycle;Max_cycle;Signal;HPM_P1;HPM_P2
2024/01/15 00:00:46;;;;;;;36.85;18.33;;;2.50;99.90;;;;;;4134730;28;20426;-76
2024/01/15 00:02:47;;;;;;;34.05;16.88;;;2.40;99.90;;;;;;4144776;28;20030;-76
2024/01/15 00:04:48;;;;;;;35.03;17.13;;;2.50;99.90;;;;;;4130605;28;20033;-78
2024/01/15 00:06:49;;;;;;;33.60;15.85;;;2.50;99.90;;;;;;4141694;28;20056;-77
2024/01/15 00:08:50;;;;;;;34.78;17.30;;;2.50;99.90;;;;;;4145415;28;20034;-76
2024/01/15 00:10:50;;;;;;;32.97;16.27;;;2.50;99.90;;;;;;4145446;28;20034;-76
2024/01/15 00:12:51;;;;;;;30.83;15.75;;;2.50;99.90;;;;;;4143935;28;20041;-76
2024/01/15 00:14:52;;;;;;;37.67;17.80;;;2.50;99.90;;;;;;4158794;28;20586;-75
2024/01/15 00:16:54;;;;;;;28.95;14.38;;;2.50;99.90;;;;;;4145591;28;20395;-75
2024/01/15 00:18:55;;;;;;;33.03;16.38;;;2.50;99.90;;;;;;4134357;28;20060;-76
2024/01/15 00:20:56;;;;;;;31.38;15.82;;;2.50;99.90;;;;;;4145889;28;20490;-75
2024/01/15 00:22:56;;;;;;;34.55;16.55;;;2.50;99.90;;;;;;4137248;28;20549;-76
2024/01/15 00:24:57;;;;;;;27.95;15.45;;;2.50;99.90;;;;;;4131590;28;20529;-76
2024/01/15 00:26:58;;;;;;;32.28;15.65;;;2.50;99.90;;;;;;4136613;28;20391;-74
2024/01/15 00:28:58;;;;;;;31.17;15.23;;;2.50;99.90;;;;;;4136282;28;20419;-76
2024/01/15 00:30:59;;;;;;;34.85;15.90;;;2.50;99.90;;;;;;4132385;28;20041;-72
2024/01/15 00:32:59;;;;;;;30.15;14.95;;;2.60;99.90;;;;;;4152318;28;20045;-72
2024/01/15 00:35:00;;;;;;;35.30;15.80;;;2.60;99.90;;;;;;4160744;28;20041;-71
2024/01/15 00:37:00;;;;;;;30.25;16.02;;;2.50;99.90;;;;;;4160825;28;20457;-71
2024/01/15 00:39:01;;;;;;;27.45;14.70;;;2.60;99.90;;;;;;4161848;28;20057;-71
2024/01/15 00:41:02;;;;;;;30.38;15.57;;;2.60;99.90;;;;;;4160442;28;20045;-71
2024/01/15 00:43:03;;;;;;;30.45;14.93;;;2.60;99.90;;;;;;4161312;28;20045;-71
2024/01/15 00:45:05;;;;;;;31.40;15.55;;;2.60;99.90;;;;;;4162347;28;20163;-73
2024/01/15 00:47:05;;;;;;;33.28;15.48;;;2.60;99.90;;;;;;4147070;28;20041;-72
2024/01/15 00:49:06;;;;;;;32.03;15.27;;;2.60;99.90;;;;;;4162256;28;20072;-71
2024/01/15 00:51:07;;;;;;;29.73;14.35;;;2.60;99.90;;;;;;4137033;28;20086;-72
2024/01/15 00:53:08;;;;;;;27.33;15.07;;;2.60;99.90;;;;;;4149435;28;20494;-71
2024/01/15 00:55:08;;;;;;;30.25;15.15;;;2.60;99.90;;;;;;4127596;28;20104;-71
2024/01/15 00:57:09;;;;;;;29.95;14.90;;;2.60;99.90;;;;;;4161721;28;20045;-71
2024/01/15 00:59:10;;;;;;;30.88;15.43;;;2.60;99.90;;;;;;4128124;28;20035;-71
2024/01/15 01:01:10;;;;;;;34.85;16.02;;;2.60;99.90;;;;;;4159502;28;20045;-71
2024/01/15 01:03:11;;;;;;;31.02;16.15;;;2.70;99.90;;;;;;4159684;28;20541;-71
2024/01/15 01:05:12;;;;;;;32.25;16.48;;;2.70;99.90;;;;;;4161242;28;20049;-72
2024/01/15 01:07:12;;;;;;;29.63;15.07;;;2.70;99.90;;;;;;4141615;28;20120;-71
2024/01/15 01:09:13;;;;;;;31.38;16.48;;;2.70;99.90;;;;;;4175434;28;20083;-71
2024/01/15 01:11:14;;;;;;;31.52;16.27;;;2.70;99.90;;;;;;4150854;28;20034;-71
2024/01/15 01:13:15;;;;;;;36.17;17.87;;;2.70;99.90;;;;;;4135864;28;20499;-72
2024/01/15 01:15:15;;;;;;;30.27;16.52;;;2.60;99.90;;;;;;4146331;28;20022;-72
2024/01/15 01:17:16;;;;;;;29.27;15.88;;;2.70;99.90;;;;;;4147015;28;20034;-71
2024/01/15 01:19:16;;;;;;;32.05;16.58;;;2.70;99.90;;;;;;4161035;28;20046;-71
2024/01/15 01:21:17;;;;;;;32.05;16.50;;;2.70;99.90;;;;;;4155868;28;20518;-72
2024/01/15 01:23:18;;;;;;;32.58;15.75;;;2.70;99.90;;;;;;4169150;28;20040;-71
2024/01/15 01:25:19;;;;;;;33.38;16.75;;;2.70;99.90;;;;;;4161632;28;20037;-71
2024/01/15 01:27:19;;;;;;;31.40;16.40;;;2.70;99.90;;;;;;4132605;28;20042;-71
2024/01/15 01:29:20;;;;;;;30.48;16.40;;;2.70;99.90;;;;;;4128312;28;20130;-71
2024/01/15 01:31:20;;;;;;;30.67;16.38;;;2.70;99.90;;;;;;4143915;28;20399;-72
2024/01/15 01:33:21;;;;;;;35.95;17.48;;;2.70;99.90;;;;;;4141167;28;20430;-72
2024/01/15 01:35:22;;;;;;;35.20;15.73;;;2.70;99.90;;;;;;4127182;28;20044;-71
2024/01/15 01:37:22;;;;;;;32.55;15.38;;;2.70;99.90;;;;;;4140152;28;20057;-72
2024/01/15 01:39:23;;;;;;;29.25;15.15;;;2.70;99.90;;;;;;4144316;28;20026;-72
2024/01/15 01:41:24;;;;;;;34.00;15.77;;;2.70;99.90;;;;;;4120806;28;20046;-72
2024/01/15 01:43:24;;;;;;;31.50;15.52;;;2.70;99.90;;;;;;4155838;28;20450;-71
2024/01/15 01:45:25;;;;;;;31.58;14.05;;;2.70;99.90;;;;;;4142942;28;20395;-71
2024/01/15 01:47:26;;;;;;;28.02;14.48;;;2.70;99.90;;;;;;4143583;28;20710;-71
2024/01/15 01:49:28;;;;;;;26.75;13.50;;;2.70;99.90;;;;;;4143004;28;20115;-72
2024/01/15 01:51:28;;;;;;;27.37;13.47;;;2.70;99.90;;;;;;4143211;28;20030;-72
2024/01/15 01:53:30;;;;;;;28.80;13.68;;;2.70;99.90;;;;;;4144802;28;20065;-71
2024/01/15 01:55:33;;;;;;;27.42;13.43;;;2.70;99.90;;;;;;4123580;28;20038;-71
2024/01/15 01:57:34;;;;;;;;;;;2.70;99.90;;;;;;4160230;28;20033;-72
2024/01/15 01:59:35;;;;;;;24.38;12.48;;;2.70;99.90;;;;;;4143521;28;20388;-72
2024/01/15 02:01:36;;;;;;;25.33;12.00;;;2.70;99.90;;;;;;4146441;28;20454;-75
2024/01/15 02:03:38;;;;;;;26.60;12.80;;;2.80;99.90;;;;;;4140958;28;20034;-77
2024/01/15 02:05:40;;;;;;;22.58;11.15;;;2.70;99.90;;;;;;4142200;28;20041;-75
2024/01/15 02:07:41;;;;;;;27.17;13.32;;;2.70;99.90;;;;;;4113383;28;20031;-74
2024/01/15 02:09:41;;;;;;;24.40;11.05;;;2.70;99.90;;;;;;4162374;28;20139;-73
2024/01/15 02:11:42;;;;;;;25.20;12.13;;;2.70;99.90;;;;;;4146917;28;20037;-74
2024/01/15 02:13:43;;;;;;;21.77;11.32;;;2.70;99.90;;;;;;4146628;28;20037;-76
2024/01/15 02:15:43;;;;;;;25.45;12.73;;;2.80;99.90;;;;;;4143678;28;20430;-75
2024/01/15 02:18:05;;;;;;;21.90;10.43;;;2.80;99.90;;;;;;4146657;28;20029;-75
2024/01/15 02:20:06;;;;;;;20.60;10.45;;;2.80;99.90;;;;;;4144568;28;20045;-74
2024/01/15 02:22:07;;;;;;;20.48;9.30;;;2.70;99.90;;;;;;4160902;28;20033;-75
2024/01/15 02:24:07;;;;;;;24.15;10.80;;;2.70;99.90;;;;;;4130114;28;20054;-76
2024/01/15 02:26:08;;;;;;;18.50;8.88;;;2.80;99.90;;;;;;4142536;28;20380;-74
2024/01/15 02:28:14;;;;;;;23.77;10.50;;;2.70;99.90;;;;;;4146725;28;20033;-75
2024/01/15 02:30:16;;;;;;;17.33;8.65;;;2.80;99.90;;;;;;4133390;28;20026;-75
2024/01/15 02:32:16;;;;;;;16.73;8.50;;;2.70;99.90;;;;;;4150383;28;20041;-75
2024/01/15 02:34:17;;;;;;;17.88;8.25;;;2.70;99.90;;;;;;4143522;28;20033;-76
2024/01/15 02:36:17;;;;;;;19.50;8.27;;;2.70;99.90;;;;;;4157441;28;20103;-76
2024/01/15 02:38:18;;;;;;;18.40;7.55;;;2.80;99.90;;;;;;4162803;28;20034;-75
2024/01/15 02:40:19;;;;;;;15.80;7.22;;;2.80;99.90;;;;;;4162825;28;20026;-75
2024/01/15 02:42:19;;;;;;;15.15;7.65;;;2.70;99.90;;;;;;4163607;28;20513;-75
2024/01/15 02:44:20;;;;;;;19.45;7.60;;;2.70;99.90;;;;;;4158877;28;20071;-75
2024/01/15 02:46:21;;;;;;;16.70;7.00;;;2.70;99.90;;;;;;4159663;28;20033;-75
2024/01/15 02:48:21;;;;;;;15.98;7.30;;;2.70;99.90;;;;;;4159528;28;20379;-75
2024/01/15 02:50:22;;;;;;;11.73;6.07;;;2.80;99.90;;;;;;4174272;28;20122;-75
2024/01/15 02:52:22;;;;;;;14.70;6.70;;;2.70;99.90;;;;;;4159139;28;20720;-75
2024/01/15 02:54:23;;;;;;;12.00;5.47;;;2.80;99.90;;;;;;4147669;28;20082;-76
2024/01/15 02:56:23;;;;;;;12.85;6.25;;;2.70;99.90;;;;;;4143358;28;20121;-75
2024/01/15 02:58:24;;;;;;;13.02;5.80;;;2.80;99.90;;;;;;4155112;28;20421;-75
2024/01/15 03:00:24;;;;;;;13.55;6.55;;;2.80;99.90;;;;;;4159015;28;20485;-73
2024/01/15 03:02:25;;;;;;;17.10;6.55;;;2.80;99.90;;;;;;4159121;28;20080;-73
2024/01/15 03:04:25;;;;;;;18.08;6.63;;;2.80;99.90;;;;;;4158802;28;20116;-72
2024/01/15 03:06:26;;;;;;;12.52;6.22;;;2.70;99.90;;;;;;4146869;28;20426;-72
2024/01/15 03:08:27;;;;;;;9.13;5.03;;;2.80;99.90;;;;;;4159334;28;20493;-73
2024/01/15 03:10:27;;;;;;;16.42;6.40;;;2.80;99.90;;;;;;4157969;28;20045;-74
2024/01/15 03:12:28;;;;;;;12.63;5.90;;;2.80;99.90;;;;;;4175081;28;20042;-74
2024/01/15 03:14:28;;;;;;;13.00;5.82;;;2.80;99.90;;;;;;4146834;28;20091;-75
2024/01/15 03:16:29;;;;;;;12.30;6.25;;;2.80;99.90;;;;;;4150455;28;20042;-75
2024/01/15 03:18:30;;;;;;;16.48;6.43;;;2.80;99.90;;;;;;4151668;28;20034;-75
2024/01/15 03:20:30;;;;;;;12.60;5.95;;;2.80;99.90;;;;;;4138687;28;20096;-76
2024/01/15 03:22:31;;;;;;;12.77;5.50;;;2.80;99.90;;;;;;4147660;28;20403;-75
2024/01/15 03:24:32;;;;;;;11.38;5.45;;;2.80;99.90;;;;;;4149116;28;20050;-75
2024/01/15 03:26:32;;;;;;;10.40;6.10;;;2.80;99.90;;;;;;4177021;28;20021;-75
2024/01/15 03:28:33;;;;;;;12.75;6.63;;;2.80;99.90;;;;;;4131766;28;20165;-75
2024/01/15 03:30:34;;;;;;;13.73;7.15;;;2.80;99.90;;;;;;4151087;28;20394;-76
2024/01/15 03:32:34;;;;;;;12.70;6.28;;;2.80;99.90;;;;;;4151453;28;20045;-75
2024/01/15 03:34:35;;;;;;;11.10;6.68;;;2.80;99.90;;;;;;4142194;28;20041;-75
2024/01/15 03:36:35;;;;;;;16.90;7.88;;;2.80;99.90;;;;;;4144907;28;20491;-75
2024/01/15 03:38:41;;;;;;;11.68;6.97;;;2.80;99.90;;;;;;4144916;28;20033;-75
2024/01/15 03:40:42;;;;;;;14.98;7.28;;;2.80;99.90;;;;;;4141045;28;20042;-74
2024/01/15 03:42:42;;;;;;;14.27;7.75;;;2.70;99.90;;;;;;4146017;28;20470;-75
2024/01/15 03:44:43;;;;;;;10.90;7.30;;;2.80;99.90;;;;;;4146951;28;20034;-75
2024/01/15 03:46:44;;;;;;;17.25;8.50;;;2.70;99.90;;;;;;4145915;28;20507;-75
2024/01/15 03:48:44;;;;;;;20.17;8.75;;;2.70;99.90;;;;;;4146004;28;20532;-75
2024/01/15 03:50:45;;;;;;;15.32;7.53;;;2.70;99.90;;;;;;4142611;28;20062;-75
2024/01/15 03:52:46;;;;;;;14.43;8.30;;;2.70;99.90;;;;;;4146277;28;20037;-75
2024/01/15 03:54:46;;;;;;;13.43;7.25;;;2.70;99.90;;;;;;4133665;28;20037;-76
2024/01/15 03:56:47;;;;;;;17.77;7.75;;;2.70;99.90;;;;;;4143489;28;20038;-75
2024/01/15 03:58:47;;;;;;;12.02;7.32;;;2.80;99.90;;;;;;4172667;28;20390;-76
2024/01/15 04:00:48;;;;;;;14.18;7.85;;;2.80;99.90;;;;;;4158853;28;20034;-75
2024/01/15 04:02:48;;;;;;;14.43;7.20;;;2.80;99.90;;;;;;4146406;28;20449;-75
2024/01/15 04:04:49;;;;;;;15.25;7.63;;;2.80;99.90;;;;;;4159385;28;20398;-74
2024/01/15 04:06:49;;;;;;;19.83;7.97;;;2.80;99.90;;;;;;4159021;28;20555;-75
2024/01/15 04:08:50;;;;;;;14.55;7.35;;;2.80;99.90;;;;;;4152062;28;20034;-76
2024/01/15 04:10:51;;;;;;;16.10;7.35;;;2.70;99.90;;;;;;4131905;28;20491;-75
2024/01/15 04:12:51;;;;;;;18.23;7.70;;;2.80;99.90;;;;;;4140544;28;20573;-75
2024/01/15 04:14:52;;;;;;;13.57;6.95;;;2.80;99.90;;;;;;4141005;28;20033;-75
2024/01/15 04:16:52;;;;;;;12.93;6.22;;;2.80;99.90;;;;;;4172736;28;20294;-74
2024/01/15 04:18:53;;;;;;;16.77;6.18;;;2.70;99.90;;;;;;4138950;28;20520;-74
2024/01/15 04:20:53;;;;;;;12.68;6.60;;;2.70;99.90;;;;;;4141943;28;20092;-72
2024/01/15 04:22:54;;;;;;;13.85;6.20;;;2.70;99.90;;;;;;4145208;28;20045;-72
2024/01/15 04:24:54;;;;;;;12.48;6.55;;;2.70;99.90;;;;;;4145861;28;20493;-72
2024/01/15 04:26:55;;;;;;;14.73;6.72;;;2.70;99.90;;;;;;4144673;28;20046;-73
2024/01/15 04:28:56;;;;;;;13.05;6.38;;;2.70;99.90;;;;;;4146679;28;20040;-73
2024/01/15 04:30:56;;;;;;;13.73;6.28;;;2.70;99.90;;;;;;4176454;28;20495;-72
2024/01/15 04:32:57;;;;;;;11.68;6.05;;;2.70;99.90;;;;;;4136482;28;20046;-73
2024/01/15 04:34:57;;;;;;;20.30;6.32;;;2.70;99.90;;;;;;4162033;28;20029;-73
2024/01/15 04:36:58;;;;;;;13.52;5.55;;;2.70;99.90;;;;;;4124449;28;20105;-73
2024/01/15 04:38:58;;;;;;;9.45;5.43;;;2.70;99.90;;;;;;4160693;28;20064;-73
2024/01/15 04:40:59;;;;;;;9.18;5.30;;;2.70;99.90;;;;;;4144964;28;20037;-72
2024/01/15 04:42:59;;;;;;;12.93;5.20;;;2.70;99.90;;;;;;4145880;28;20143;-73
2024/01/15 04:45:00;;;;;;;12.10;5.68;;;2.70;99.90;;;;;;4119946;28;20034;-73
2024/01/15 04:47:01;;;;;;;14.50;6.32;;;2.70;99.90;;;;;;4143927;28;20549;-71
2024/01/15 04:49:01;;;;;;;10.98;5.50;;;2.70;99.90;;;;;;4158703;28;20076;-72
2024/01/15 04:51:05;;;;;;;11.98;6.70;;;2.70;99.90;;;;;;4146993;28;20100;-72
2024/01/15 04:53:05;;;;;;;11.10;5.78;;;2.70;99.90;;;;;;4161679;28;20038;-72
2024/01/15 04:55:06;;;;;;;13.70;6.85;;;2.70;99.90;;;;;;4156703;28;20160;-72
2024/01/15 04:57:07;;;;;;;15.00;6.22;;;2.70;99.90;;;;;;4159702;28;20037;-72
2024/01/15 04:59:07;;;;;;;12.73;6.57;;;2.70;99.90;;;;;;4148582;28;20037;-72
2024/01/15 05:01:08;;;;;;;14.55;6.55;;;2.70;99.90;;;;;;4157691;28;20087;-72
2024/01/15 05:03:09;;;;;;;10.93;6.28;;;2.60;99.90;;;;;;4161452;28;20451;-72
2024/01/15 05:05:09;;;;;;;13.77;5.90;;;2.70;99.90;;;;;;4140612;28;20035;-73
2024/01/15 05:07:10;;;;;;;13.40;6.45;;;2.70;99.90;;;;;;4138621;28;20121;-73
2024/01/15 05:09:10;;;;;;;11.43;6.18;;;2.70;99.90;;;;;;4141175;28;20046;-73
2024/01/15 05:11:11;;;;;;;11.18;5.65;;;2.70;99.90;;;;;;4139877;28;20501;-73
2024/01/15 05:13:12;;;;;;;12.02;6.03;;;2.70;99.90;;;;;;4139765;28;20037;-73
2024/01/15 05:15:12;;;;;;;10.77;5.72;;;2.70;99.90;;;;;;4139780;28;20064;-74
2024/01/15 05:17:13;;;;;;;12.88;5.80;;;2.70;99.90;;;;;;4172244;28;20119;-72
2024/01/15 05:19:13;;;;;;;12.63;6.03;;;2.70;99.90;;;;;;4159746;28;20120;-71
2024/01/15 05:21:14;;;;;;;15.55;5.57;;;2.70;99.90;;;;;;4158564;28;20044;-75
2024/01/15 05:23:14;;;;;;;12.50;5.57;;;2.70;99.90;;;;;;4147565;28;20045;-74
2024/01/15 05:25:15;;;;;;;14.75;5.88;;;2.70;99.90;;;;;;4145306;28;20075;-75
2024/01/15 05:27:16;;;;;;;9.02;4.72;;;2.70;99.90;;;;;;4159538;28;20033;-74
2024/01/15 05:29:16;;;;;;;10.50;5.22;;;2.70;99.90;;;;;;4158828;28;20506;-75
2024/01/15 05:31:17;;;;;;;10.98;5.20;;;2.80;99.90;;;;;;4125031;28;20589;-72
2024/01/15 05:33:17;;;;;;;10.70;5.70;;;2.80;99.90;;;;;;4142280;28;20874;-72
2024/01/15 05:35:18;;;;;;;9.40;4.40;;;2.70;99.90;;;;;;4158991;28;20029;-72
2024/01/15 05:37:18;;;;;;;12.15;5.90;;;2.80;99.90;;;;;;4144923;28;20052;-72
2024/01/15 05:39:19;;;;;;;9.50;4.60;;;2.80;99.90;;;;;;4174935;28;20048;-72
2024/01/15 05:41:20;;;;;;;11.45;4.65;;;2.80;99.90;;;;;;4144493;28;20541;-72
2024/01/15 05:43:20;;;;;;;9.82;4.13;;;2.80;99.90;;;;;;4150858;28;20030;-72
2024/01/15 05:45:21;;;;;;;11.13;4.53;;;2.80;99.90;;;;;;4158175;28;20037;-72
2024/01/15 05:47:21;;;;;;;6.88;3.67;;;2.80;99.90;;;;;;4160082;28;20049;-72
2024/01/15 05:49:22;;;;;;;10.90;3.55;;;2.80;99.90;;;;;;4160821;28;20040;-72
2024/01/15 05:51:22;;;;;;;17.23;4.70;;;2.80;99.90;;;;;;4160345;28;20030;-72
2024/01/15 05:53:23;;;;;;;7.53;4.00;;;2.80;99.90;;;;;;4151724;28;20733;-72
2024/01/15 05:55:24;;;;;;;11.25;4.32;;;2.80;99.90;;;;;;4158740;28;21048;-72
2024/01/15 05:57:24;;;;;;;10.95;3.85;;;2.80;99.90;;;;;;4147388;28;20073;-73
2024/01/15 05:59:25;;;;;;;14.15;3.95;;;2.80;99.90;;;;;;4152561;28;20030;-73
2024/01/15 06:01:26;;;;;;;10.75;3.42;;;2.80;99.90;;;;;;4145530;28;20526;-73
2024/01/15 06:03:27;;;;;;;7.47;3.83;;;2.80;99.90;;;;;;4147285;28;20049;-73
2024/01/15 06:05:27;;;;;;;7.88;2.83;;;2.80;99.90;;;;;;4140623;28;20030;-73
2024/01/15 06:07:28;;;;;;;8.35;3.33;;;2.80;99.90;;;;;;4157833;28;20479;-73
2024/01/15 06:09:28;;;;;;;6.68;3.28;;;2.80;99.90;;;;;;4157713;28;20120;-73
2024/01/15 06:11:30;;;;;;;9.40;2.80;;;2.80;99.90;;;;;;4158759;28;20401;-73
2024/01/15 06:13:31;;;;;;;6.07;2.67;;;2.80;99.90;;;;;;4157314;28;20033;-73
2024/01/15 06:15:31;;;;;;;6.22;2.33;;;2.80;99.90;;;;;;4146842;28;20053;-73
2024/01/15 06:17:32;;;;;;;6.20;2.50;;;2.70;99.90;;;;;;4150254;28;20527;-72
2024/01/15 06:19:32;;;;;;;9.32;2.58;;;2.80;99.90;;;;;;4146042;28;20481;-73
2024/01/15 06:21:33;;;;;;;8.57;3.03;;;2.80;99.90;;;;;;4157605;28;20394;-74
2024/01/15 06:23:33;;;;;;;4.72;2.03;;;2.80;99.90;;;;;;4155532;28;20432;-73
2024/01/15 06:25:34;;;;;;;6.18;2.67;;;2.80;99.90;;;;;;4142010;28;20049;-72
2024/01/15 06:27:34;;;;;;;8.27;2.38;;;2.80;99.90;;;;;;4164658;28;20499;-72
2024/01/15 06:29:37;;;;;;;6.30;2.28;;;2.80;99.90;;;;;;4153238;28;20108;-72
2024/01/15 06:31:38;;;;;;;4.15;1.70;;;2.80;99.90;;;;;;4151947;28;20036;-72
2024/01/15 06:33:39;;;;;;;8.73;2.25;;;2.90;99.90;;;;;;4141494;28;20498;-72
2024/01/15 06:35:39;;;;;;;4.38;1.90;;;2.90;99.90;;;;;;4157213;28;20037;-72
2024/01/15 06:37:40;;;;;;;5.22;2.10;;;2.80;99.90;;;;;;4159168;28;20030;-72
2024/01/15 06:39:40;;;;;;;6.15;1.80;;;2.80;99.90;;;;;;4144685;28;20132;-72
2024/01/15 06:41:43;;;;;;;4.35;1.80;;;2.80;99.90;;;;;;4157469;28;20482;-71
2024/01/15 06:43:43;;;;;;;;;;;2.80;99.90;;;;;;4159530;28;20120;-71
2024/01/15 06:45:44;;;;;;;6.65;1.90;;;2.80;99.90;;;;;;4173971;28;20412;-70
2024/01/15 06:47:45;;;;;;;4.63;1.67;;;2.80;99.90;;;;;;4160444;28;20188;-70
2024/01/15 06:49:45;;;;;;;2.63;1.20;;;2.80;99.90;;;;;;4144970;28;20390;-71
2024/01/15 06:51:46;;;;;;;1.98;1.38;;;2.80;99.90;;;;;;4159117;28;20094;-71
2024/01/15 06:53:47;;;;;;;2.35;1.40;;;2.80;99.90;;;;;;4174644;28;20025;-71
2024/01/15 06:55:49;;;;;;;4.43;1.85;;;2.80;99.90;;;;;;4147829;28;20026;-71
2024/01/15 06:57:49;;;;;;;3.05;1.52;;;2.80;99.90;;;;;;4143478;28;20026;-71
2024/01/15 06:59:50;;;;;;;5.60;2.25;;;2.80;99.90;;;;;;4159490;28;20025;-69
2024/01/15 07:01:51;;;;;;;5.25;1.63;;;2.80;99.90;;;;;;4155027;28;20034;-69
2024/01/15 07:03:51;;;;;;;6.53;2.05;;;2.80;99.90;;;;;;4151569;28;20072;-69
2024/01/15 07:05:52;;;;;;;3.72;1.80;;;2.80;99.90;;;;;;4155467;28;20042;-70
2024/01/15 07:07:52;;;;;;;3.25;1.65;;;2.80;99.90;;;;;;4155890;28;20048;-69
2024/01/15 07:09:53;;;;;;;5.10;2.15;;;2.80;99.90;;;;;;4156110;28;20458;-69
2024/01/15 07:11:54;;;;;;;3.72;1.88;;;2.80;99.90;;;;;;4156227;28;20531;-69
2024/01/15 07:13:54;;;;;;;7.20;2.15;;;2.80;99.90;;;;;;4157279;28;20124;-69
2024/01/15 07:15:55;;;;;;;4.25;2.08;;;2.80;99.90;;;;;;4134393;28;20128;-70
2024/01/15 07:17:55;;;;;;;5.50;2.22;;;2.80;99.90;;;;;;4139349;28;20506;-69
2024/01/15 07:19:56;;;;;;;6.30;2.88;;;2.80;99.90;;;;;;4138921;28;20041;-69
2024/01/15 07:21:56;;;;;;;5.05;2.58;;;2.80;99.90;;;;;;4142166;28;21464;-69
2024/01/15 07:23:57;;;;;;;4.35;2.58;;;2.80;99.90;;;;;;4142636;28;20042;-69
2024/01/15 07:25:58;;;;;;;9.30;3.40;;;2.80;99.90;;;;;;4139817;28;20105;-70
2024/01/15 07:27:58;;;;;;;10.35;4.00;;;2.80;99.90;;;;;;4138629;28;20427;-70
2024/01/15 07:29:59;;;;;;;7.75;4.15;;;2.80;99.90;;;;;;4141888;28;20479;-71
2024/01/15 07:32:00;;;;;;;7.68;4.28;;;2.90;99.90;;;;;;4143735;28;20436;-70
2024/01/15 07:34:01;;;;;;;8.63;4.30;;;2.80;99.90;;;;;;4144187;28;20541;-70
2024/01/15 07:36:02;;;;;;;7.90;5.05;;;2.80;99.90;;;;;;4157067;28;20393;-70
2024/01/15 07:38:03;;;;;;;8.37;6.00;;;2.80;99.90;;;;;;4136067;28;20403;-70
2024/01/15 07:40:05;;;;;;;9.40;6.85;;;2.80;99.90;;;;;;4156639;28;20269;-72
2024/01/15 07:42:07;;;;;;;9.63;6.13;;;2.80;99.90;;;;;;4140866;28;20041;-69
2024/01/15 07:44:07;;;;;;;12.70;7.07;;;2.80;99.90;;;;;;4153967;28;20046;-70
2024/01/15 07:46:08;;;;;;;11.48;6.82;;;2.80;99.90;;;;;;4140147;28;20425;-70
2024/01/15 07:48:09;;;;;;;10.40;6.63;;;2.70;99.90;;;;;;4166790;28;20033;-70
2024/01/15 07:50:10;;;;;;;9.63;6.72;;;2.70;99.90;;;;;;4137564;28;20193;-76
2024/01/15 07:52:12;;;;;;;10.52;6.63;;;2.70;99.90;;;;;;4155618;28;20041;-76
2024/01/15 07:54:13;;;;;;;11.35;7.35;;;2.70;99.90;;;;;;4154983;28;20041;-75
2024/01/15 07:56:14;;;;;;;10.68;7.18;;;2.70;99.90;;;;;;4154766;28;20038;-75
2024/01/15 07:58:14;;;;;;;10.82;6.30;;;2.70;99.90;;;;;;4161217;28;20045;-75
2024/01/15 08:00:15;;;;;;;7.30;5.95;;;2.70;99.90;;;;;;4148671;28;20650;-76
2024/01/15 08:02:16;;;;;;;12.25;7.57;;;2.60;99.90;;;;;;4158283;28;20037;-75
2024/01/15 08:04:16;;;;;;;10.40;6.75;;;2.60;99.90;;;;;;4127042;28;20034;-76
2024/01/15 08:06:17;;;;;;;9.57;6.28;;;2.60;99.90;;;;;;4152867;28;20654;-75
2024/01/15 08:08:18;;;;;;;8.98;6.63;;;2.60;99.90;;;;;;4144430;28;20037;-75
2024/01/15 08:10:19;;;;;;;7.88;6.13;;;2.60;99.90;;;;;;4158425;28;20022;-75
2024/01/15 08:12:19;;;;;;;9.20;6.30;;;2.60;99.90;;;;;;4158544;28;20075;-75
2024/01/15 08:14:20;;;;;;;8.85;6.43;;;2.60;99.90;;;;;;4151588;28;20045;-75
2024/01/15 08:16:20;;;;;;;8.23;6.05;;;2.60;99.90;;;;;;4140743;28;20037;-75
2024/01/15 08:18:21;;;;;;;9.68;6.22;;;2.50;99.90;;;;;;4144979;28;20748;-74
2024/01/15 08:20:22;;;;;;;9.00;6.70;;;2.50;99.90;;;;;;4137553;28;20799;-75
2024/01/15 08:22:22;;;;;;;8.20;5.57;;;2.50;99.90;;;;;;4141863;28;20382;-75
2024/01/15 08:24:23;;;;;;;10.20;5.70;;;2.50;99.90;;;;;;4141384;28;20468;-75
2024/01/15 08:26:24;;;;;;;7.63;5.75;;;2.50;99.90;;;;;;4140082;28;20042;-75
2024/01/15 08:28:25;;;;;;;8.35;5.80;;;2.50;99.90;;;;;;4169749;28;20040;-75
2024/01/15 08:30:27;;;;;;;8.23;5.32;;;2.50;99.90;;;;;;4154898;28;20037;-75
2024/01/15 08:32:28;;;;;;;7.03;5.00;;;2.50;99.90;;;;;;4150097;28;20056;-73
2024/01/15 08:34:28;;;;;;;7.93;5.07;;;2.50;99.90;;;;;;4156073;28;21541;-75
2024/01/15 08:36:34;;;;;;;5.57;4.38;;;2.50;99.90;;;;;;4134191;28;20057;-75
2024/01/15 08:38:35;;;;;;;6.88;4.40;;;2.50;99.90;;;;;;4158750;28;20158;-76
2024/01/15 08:40:36;;;;;;;5.95;4.45;;;2.50;99.90;;;;;;4134731;28;20042;-74
2024/01/15 08:42:36;;;;;;;8.23;4.13;;;2.50;99.90;;;;;;4141025;28;20088;-75
2024/01/15 08:44:39;;;;;;;5.78;3.88;;;2.50;99.90;;;;;;4137706;28;20025;-75
2024/01/15 08:46:39;;;;;;;;;;;2.50;99.90;;;;;;4139533;28;20633;-73
2024/01/15 08:48:40;;;;;;;4.55;3.05;;;2.40;99.90;;;;;;4155919;28;19937;-75
2024/01/15 08:50:40;;;;;;;5.53;3.50;;;2.40;99.90;;;;;;4138792;28;20034;-72
2024/01/15 08:52:41;;;;;;;4.45;2.90;;;2.40;99.90;;;;;;4154235;28;20160;-72
2024/01/15 08:54:42;;;;;;;3.55;2.70;;;2.40;99.90;;;;;;4157746;28;20405;-72
2024/01/15 08:56:42;;;;;;;2.80;2.25;;;2.40;99.90;;;;;;4135326;28;20030;-72
2024/01/15 08:58:43;;;;;;;3.03;2.25;;;2.30;99.90;;;;;;4150268;28;20115;-72
2024/01/15 09:00:44;;;;;;;2.55;2.13;;;2.30;99.90;;;;;;4156584;28;20393;-72
2024/01/15 09:02:44;;;;;;;2.85;2.20;;;2.30;99.90;;;;;;4140581;28;20244;-70
2024/01/15 09:04:45;;;;;;;3.35;2.28;;;2.30;99.90;;;;;;4156290;28;20609;-70
2024/01/15 09:06:49;;;;;;;2.88;2.22;;;2.30;99.90;;;;;;4137921;28;20500;-71
2024/01/15 09:08:50;;;;;;;4.03;2.40;;;2.30;99.90;;;;;;4143247;28;20056;-70
2024/01/15 09:10:50;;;;;;;3.38;1.73;;;2.40;99.90;;;;;;4154787;28;20873;-73
2024/01/15 09:12:51;;;;;;;3.08;2.08;;;2.30;99.90;;;;;;4141120;28;20045;-73
2024/01/15 09:14:53;;;;;;;2.88;2.17;;;2.30;99.90;;;;;;4147330;28;20043;-73
2024/01/15 09:16:54;;;;;;;2.97;2.17;;;2.40;99.90;;;;;;4154694;28;20034;-74
2024/01/15 09:18:57;;;;;;;2.22;2.03;;;2.40;99.90;;;;;;4173667;28;20410;-73
2024/01/15 09:20:57;;;;;;;2.88;2.33;;;2.40;99.90;;;;;;4143506;28;20439;-74
2024/01/15 09:22:58;;;;;;;2.33;2.00;;;2.40;99.90;;;;;;4141758;28;20064;-74
2024/01/15 09:24:59;;;;;;;2.72;2.10;;;2.40;99.90;;;;;;4140927;28;20054;-73
2024/01/15 09:26:59;;;;;;;2.80;2.17;;;2.40;99.90;;;;;;4136468;28;20042;-74
2024/01/15 09:29:00;;;;;;;3.13;2.20;;;2.40;99.90;;;;;;4133055;28;20105;-73
2024/01/15 09:31:01;;;;;;;3.00;1.90;;;2.40;99.90;;;;;;4156799;28;20702;-73
2024/01/15 09:33:02;;;;;;;3.38;2.00;;;2.40;99.90;;;;;;4150000;28;20050;-74
2024/01/15 09:35:02;;;;;;;2.03;1.83;;;2.40;99.90;;;;;;4142560;28;20037;-74
2024/01/15 09:37:04;;;;;;;2.47;2.28;;;2.40;99.90;;;;;;4123752;28;20050;-74
2024/01/15 09:39:06;;;;;;;3.50;2.33;;;2.40;99.90;;;;;;4137310;28;20049;-74
2024/01/15 09:41:06;;;;;;;2.80;2.33;;;2.40;99.90;;;;;;4156930;28;20080;-74
2024/01/15 09:43:07;;;;;;;2.80;2.20;;;2.40;99.90;;;;;;4156801;28;20041;-74
2024/01/15 09:45:09;;;;;;;3.70;2.35;;;2.40;99.90;;;;;;4171894;28;20037;-74
2024/01/15 09:47:10;;;;;;;5.80;2.77;;;2.40;99.90;;;;;;4154458;28;20223;-72
2024/01/15 09:49:11;;;;;;;3.20;2.40;;;2.40;99.90;;;;;;4158036;28;20050;-74
2024/01/15 09:51:11;;;;;;;3.28;2.25;;;2.50;99.90;;;;;;4137819;28;20420;-73
2024/01/15 09:53:15;;;;;;;2.40;2.10;;;2.40;99.90;;;;;;4145310;28;20347;-74
2024/01/15 09:55:17;;;;;;;3.75;2.17;;;2.40;99.90;;;;;;4132936;28;20052;-73
2024/01/15 09:57:18;;;;;;;3.20;2.47;;;2.50;99.90;;;;;;4162438;28;20111;-74
2024/01/15 09:59:21;;;;;;;2.50;2.00;;;2.40;99.90;;;;;;4124412;28;20030;-73
2024/01/15 10:01:22;;;;;;;2.30;1.90;;;2.40;99.90;;;;;;4170052;28;21693;-76
2024/01/15 10:03:23;;;;;;;2.47;2.08;;;2.40;99.90;;;;;;4157023;28;20044;-75
2024/01/15 10:05:24;;;;;;;2.35;1.90;;;2.50;99.90;;;;;;4156323;28;20569;-76
2024/01/15 10:07:25;;;;;;;3.10;1.90;;;2.40;99.90;;;;;;4153556;28;20033;-76
2024/01/15 10:09:26;;;;;;;2.60;1.90;;;2.40;99.90;;;;;;4138952;28;20105;-76
2024/01/15 10:11:27;;;;;;;3.25;2.30;;;2.40;99.90;;;;;;4138704;28;20061;-76
2024/01/15 10:13:29;;;;;;;2.92;2.03;;;2.40;99.90;;;;;;4138015;28;20042;-76
2024/01/15 10:15:33;;;;;;;3.63;2.05;;;2.50;99.90;;;;;;4147485;28;20048;-76
2024/01/15 10:17:37;;;;;;;3.20;1.95;;;2.50;99.90;;;;;;4156955;28;20038;-76
2024/01/15 10:19:41;;;;;;;2.30;1.90;;;2.50;99.90;;;;;;4171575;28;20040;-76
2024/01/15 10:21:41;;;;;;;3.22;1.90;;;2.50;99.90;;;;;;4138944;28;20073;-70
2024/01/15 10:23:42;;;;;;;4.88;1.75;;;2.50;99.90;;;;;;4136306;28;20696;-70
2024/01/15 10:25:43;;;;;;;2.83;2.08;;;2.50;99.90;;;;;;4120783;28;20109;-72
2024/01/15 10:27:43;;;;;;;2.20;1.98;;;2.50;99.90;;;;;;4148065;28;20512;-70
2024/01/15 10:29:44;;;;;;;3.90;2.20;;;2.60;99.90;;;;;;4139085;28;20053;-71
2024/01/15 10:31:45;;;;;;;3.28;2.30;;;2.50;99.90;;;;;;4139221;28;20482;-72